Time;durP1;ratioP1;P1;durP2;ratioP2;P2;SDS_P1;SDS_P2;PMS_P1;PMS_P2;Temp;Humidity;BMP_temperature;BMP_pressure;BME280_temperature;BME280_humidity;BME280_pressure;Samples;Min_cycle;Max_cycle;Signal;HPM_P1;HPM_P2
2021/07/13 00:00:23;;;;;;;19.90;15.33;;;;;;;17.64;93.49;98557.92;124936;1090;64213;-78
2021/07/13 00:03:10;;;;;;;19.43;15.87;;;;;;;17.67;94.13;98557.63;124828;1090;64370;-77
2021/07/13 00:05:40;;;;;;;17.97;15.03;;;;;;;17.70;93.75;98546.52;124807;1090;64338;-78
2021/07/13 00:08:07;;;;;;;17.43;15.73;;;;;;;17.72;93.54;98541.80;124819;1093;64322;-77
2021/07/13 00:10:38;;;;;;;17.53;15.83;;;;;;;17.74;93.85;98543.33;124796;1090;64280;-78
2021/07/13 00:13:05;;;;;;;16.27;14.57;;;;;;;17.77;93.99;98551.13;124843;1090;64288;-78
2021/07/13 00:15:37;;;;;;;17.60;15.93;;;;;;;17.81;94.07;98550.83;124779;1089;64736;-78
2021/07/13 00:18:06;;;;;;;18.25;16.25;;;;;;;17.82;93.77;98555.20;124770;1091;64724;-78
2021/07/13 00:20:34;;;;;;;18.45;16.55;;;;;;;17.83;93.94;98546.13;124865;1090;64251;-77
2021/07/13 00:23:01;;;;;;;18.00;16.30;;;;;;;17.85;93.79;98544.09;124831;1090;64267;-77
2021/07/13 00:25:30;;;;;;;18.50;16.57;;;;;;;17.86;93.94;98535.86;124789;1090;64188;-77
2021/07/13 00:27:57;;;;;;;17.83;16.03;;;;;;;17.87;93.99;98545.63;124835;1090;64300;-78
2021/07/13 00:30:25;;;;;;;18.20;16.13;;;;;;;17.86;94.00;98538.56;124795;1090;64287;-78
2021/07/13 00:32:52;;;;;;;16.87;15.10;;;;;;;17.87;93.90;98534.84;124815;1088;64283;-78
2021/07/13 00:35:20;;;;;;;19.43;17.37;;;;;;;17.89;94.04;98537.39;124801;1088;64405;-78
2021/07/13 00:37:48;;;;;;;19.43;17.20;;;;;;;17.90;94.36;98539.07;124830;1090;64264;-77
2021/07/13 00:40:18;;;;;;;18.77;16.83;;;;;;;17.92;94.38;98545.16;124872;1090;64268;-78
2021/07/13 00:42:51;;;;;;;17.63;15.93;;;;;;;17.91;93.96;98541.63;124880;1090;64415;-78
2021/07/13 00:45:18;;;;;;;17.80;16.13;;;;;;;17.91;94.14;98543.48;124828;1090;64284;-79
2021/07/13 00:47:49;;;;;;;18.80;16.30;;;;;;;17.89;94.29;98540.09;124841;1090;64188;-79
2021/07/13 00:50:18;;;;;;;18.67;16.83;;;;;;;17.90;94.45;98530.98;124835;1090;64268;-79
2021/07/13 00:52:45;;;;;;;18.20;16.50;;;;;;;17.88;94.51;98538.41;124861;1090;64281;-78
2021/07/13 00:55:14;;;;;;;18.60;16.90;;;;;;;17.87;94.49;98537.54;124819;1090;64338;-79
2021/07/13 00:57:42;;;;;;;16.90;15.10;;;;;;;17.86;94.23;98541.25;124859;1090;64280;-79
2021/07/13 01:00:14;;;;;;;17.57;15.77;;;;;;;17.82;94.58;98534.48;124814;1090;64351;-78
2021/07/13 01:02:43;;;;;;;17.37;15.50;;;;;;;17.81;94.56;98532.80;124820;1090;64271;-79
2021/07/13 01:05:20;;;;;;;18.40;16.50;;;;;;;17.77;94.35;98525.99;124819;1090;64291;-78
2021/07/13 01:07:56;;;;;;;17.93;16.13;;;;;;;17.76;94.22;98533.23;124845;1090;64264;-79
2021/07/13 01:10:43;;;;;;;17.17;15.43;;;;;;;17.76;94.43;98525.16;124783;1090;64296;-79
2021/07/13 01:13:32;;;;;;;19.17;15.87;;;;;;;17.77;94.49;98524.17;124773;1090;64258;-79
2021/07/13 01:16:21;;;;;;;16.55;15.15;;;;;;;17.80;94.78;98524.86;124795;1090;64303;-78
2021/07/13 01:19:27;;;;;;;18.20;16.57;;;;;;;17.82;94.42;98523.70;124792;1090;64264;-79
2021/07/13 01:22:00;;;;;;;18.43;15.60;;;;;;;17.85;94.62;98522.53;124822;1090;64415;-79
2021/07/13 01:24:58;;;;;;;22.95;16.75;;;;;;;17.88;94.62;98519.54;124863;1090;64195;-78
2021/07/13 01:27:38;;;;;;;18.77;17.00;;;;;;;17.91;94.78;98509.27;124903;1090;64296;-79
2021/07/13 01:30:18;;;;;;;18.13;15.83;;;;;;;17.91;94.91;98516.52;125167;1090;64762;-78
2021/07/13 01:32:49;;;;;;;20.43;18.07;;;;;;;17.88;94.72;98508.76;125229;1090;64239;-79
2021/07/13 01:35:24;;;;;;;22.47;17.70;;;;;;;17.84;94.55;98502.82;125128;1090;64287;-78
2021/07/13 01:37:54;;;;;;;18.85;16.80;;;;;;;17.83;94.46;98497.61;125090;1090;64285;-79
2021/07/13 01:40:25;;;;;;;20.10;18.08;;;;;;;17.84;95.06;98510.07;124864;1090;64265;-78
2021/07/13 01:42:53;;;;;;;19.93;18.13;;;;;;;17.82;95.38;98501.30;124808;1089;64367;-78
2021/07/13 01:45:20;;;;;;;20.70;18.50;;;;;;;17.77;95.18;98512.52;124795;1090;64302;-79
2021/07/13 01:47:49;;;;;;;20.77;18.70;;;;;;;17.74;95.21;98516.38;124801;1090;64284;-79
2021/07/13 01:50:17;;;;;;;19.73;17.73;;;;;;;17.73;95.53;98516.55;124786;1090;64268;-79
2021/07/13 01:52:45;;;;;;;20.17;18.07;;;;;;;17.70;95.65;98519.58;124804;1090;64338;-78
2021/07/13 01:55:14;;;;;;;21.37;19.13;;;;;;;17.68;95.50;98521.58;124802;1090;64319;-79
2021/07/13 01:57:41;;;;;;;19.75;17.65;;;;;;;17.69;95.68;98517.86;124772;1090;64303;-78
2021/07/13 02:00:29;;;;;;;20.00;18.05;;;;;;;17.68;95.55;98516.19;124815;1090;64184;-78
2021/07/13 02:02:57;;;;;;;20.33;18.50;;;;;;;17.67;95.56;98514.51;124841;1090;64334;-78
2021/07/13 02:05:26;;;;;;;20.43;18.53;;;;;;;17.68;95.70;98517.02;124844;1090;64287;-78
2021/07/13 02:07:58;;;;;;;19.50;17.60;;;;;;;17.70;96.14;98511.48;124846;1089;64239;-78
2021/07/13 02:10:26;;;;;;;18.67;16.87;;;;;;;17.70;95.70;98508.80;124784;1093;64310;-79
2021/07/13 02:12:53;;;;;;;20.07;17.07;;;;;;;17.70;95.83;98512.33;124793;1090;64328;-78
2021/07/13 02:15:20;;;;;;;20.13;18.03;;;;;;;17.71;95.56;98513.16;124757;1090;64241;-78
2021/07/13 02:17:51;;;;;;;18.40;16.47;;;;;;;17.73;95.60;98511.16;124815;1090;64340;-79
2021/07/13 02:20:21;;;;;;;20.00;18.03;;;;;;;17.73;96.08;98508.47;124852;1090;65432;-79
2021/07/13 02:22:48;;;;;;;;;;;;;;;17.73;96.08;98517.39;124935;1090;64287;-79
2021/07/13 02:25:16;;;;;;;19.53;16.77;;;;;;;17.72;95.89;98515.72;124866;1090;64312;-78
2021/07/13 02:27:48;;;;;;;21.50;19.10;;;;;;;17.70;95.62;98520.41;124799;1090;64305;-78
2021/07/13 02:30:16;;;;;;;19.90;18.00;;;;;;;17.70;95.85;98520.41;124893;1090;64284;-78
2021/07/13 02:33:05;;;;;;;20.63;18.43;;;;;;;17.69;95.71;98517.86;124841;1090;64188;-78
2021/07/13 02:35:44;;;;;;;21.90;19.73;;;;;;;17.70;96.02;98514.19;124764;1089;64237;-79
2021/07/13 02:38:11;;;;;;;20.27;18.20;;;;;;;17.71;95.66;98515.86;124844;1090;64386;-79
2021/07/13 02:40:40;;;;;;;22.10;19.93;;;;;;;17.74;96.12;98515.53;124813;1090;64270;-79
2021/07/13 02:43:08;;;;;;;21.57;19.43;;;;;;;17.76;95.77;98524.31;124789;1090;64291;-78
2021/07/13 02:45:36;;;;;;;21.03;18.97;;;;;;;17.75;95.65;98528.03;124790;1090;64310;-78
2021/07/13 02:48:04;;;;;;;21.07;18.90;;;;;;;17.74;95.59;98532.55;124798;1090;64233;-78
2021/07/13 02:50:33;;;;;;;20.23;18.17;;;;;;;17.73;96.28;98544.34;124845;1090;64373;-79
2021/07/13 02:53:03;;;;;;;21.73;19.50;;;;;;;17.73;96.12;98533.56;124925;1090;64287;-77
2021/07/13 02:55:32;;;;;;;23.15;20.20;;;;;;;17.76;95.86;98527.02;124845;1090;64273;-78
2021/07/13 02:58:02;;;;;;;22.03;19.73;;;;;;;17.78;96.16;98535.78;124822;1090;64306;-77
2021/07/13 03:00:30;;;;;;;23.30;20.80;;;;;;;17.80;96.31;98530.25;124808;1090;64297;-77
2021/07/13 03:02:59;;;;;;;23.10;20.73;;;;;;;17.82;96.06;98534.48;124850;1090;64407;-78
2021/07/13 03:05:27;;;;;;;21.17;18.80;;;;;;;17.85;95.70;98530.62;124795;1090;64264;-78
2021/07/13 03:07:55;;;;;;;22.90;20.57;;;;;;;17.85;96.27;98538.70;124867;1090;64182;-78
2021/07/13 03:10:24;;;;;;;24.27;21.63;;;;;;;17.83;96.01;98536.19;124773;1090;64257;-77
2021/07/13 03:12:53;;;;;;;22.87;20.47;;;;;;;17.80;95.78;98531.13;124880;1090;64753;-77
2021/07/13 03:15:23;;;;;;;25.90;21.57;;;;;;;17.82;96.25;98531.78;124814;1090;64245;-78
2021/07/13 03:17:52;;;;;;;23.63;21.20;;;;;;;17.80;95.90;98532.95;124840;1090;64303;-77
2021/07/13 03:20:23;;;;;;;;;;;;;;;17.76;96.06;98529.70;124835;1090;64303;-78
2021/07/13 03:22:50;;;;;;;;;;;;;;;17.77;96.39;98520.60;124828;1090;64207;-78
2021/07/13 03:25:23;;;;;;;25.83;22.33;;;;;;;17.76;96.40;98513.53;124767;1090;64284;-78
2021/07/13 03:27:53;;;;;;;25.80;22.53;;;;;;;17.77;96.31;98520.60;124835;1090;64307;-78
2021/07/13 03:30:20;;;;;;;25.23;22.53;;;;;;;17.83;96.09;98528.10;124813;1089;64281;-78
2021/07/13 03:32:49;;;;;;;23.80;20.87;;;;;;;17.90;96.16;98523.73;124848;1090;64356;-79
2021/07/13 03:35:17;;;;;;;26.53;21.90;;;;;;;17.94;96.30;98521.58;124891;1089;64728;-79
2021/07/13 03:37:45;;;;;;;25.97;21.17;;;;;;;17.96;95.72;98519.58;124786;1088;64268;-78
2021/07/13 03:40:13;;;;;;;25.30;22.20;;;;;;;17.97;95.96;98521.25;124878;1090;64210;-78
2021/07/13 03:42:42;;;;;;;23.97;21.30;;;;;;;18.01;96.37;98519.06;124850;1090;64612;-78
2021/07/13 03:45:10;;;;;;;24.60;21.03;;;;;;;18.08;95.53;98512.03;124987;1090;64268;-78
2021/07/13 03:47:38;;;;;;;23.75;21.25;;;;;;;18.08;95.46;98507.48;124881;1090;64242;-78
2021/07/13 03:50:06;;;;;;;28.63;21.47;;;;;;;18.09;94.96;98508.31;124843;1090;64414;-79
2021/07/13 03:52:33;;;;;;;24.27;21.00;;;;;;;18.11;95.04;98509.00;124825;1090;64306;-78
2021/07/13 03:55:01;;;;;;;25.00;22.23;;;;;;;18.10;95.00;98507.33;124851;1090;64268;-78
2021/07/13 03:57:30;;;;;;;27.67;21.73;;;;;;;18.06;95.14;98519.43;124825;1090;64210;-78
2021/07/13 03:59:57;;;;;;;27.03;22.65;;;;;;;18.02;95.38;98510.83;124862;1090;64241;-78
2021/07/13 04:02:24;;;;;;;24.20;19.90;;;;;;;18.00;95.27;98512.84;124776;1090;64367;-78
2021/07/13 04:04:51;;;;;;;26.83;20.90;;;;;;;18.00;94.99;98502.05;124824;1090;64281;-78
2021/07/13 04:07:18;;;;;;;29.57;21.40;;;;;;;17.99;94.81;98503.91;124799;1090;64187;-78
2021/07/13 04:09:46;;;;;;;24.70;21.30;;;;;;;18.00;94.89;98502.05;124806;1090;64280;-78
2021/07/13 04:12:13;;;;;;;25.07;21.97;;;;;;;18.04;95.27;98506.13;124836;1089;64265;-78
2021/07/13 04:14:40;;;;;;;25.27;22.47;;;;;;;18.08;94.76;98510.17;124799;1090;64377;-78
2021/07/13 04:17:07;;;;;;;24.73;22.10;;;;;;;18.10;95.02;98513.56;124769;1090;64287;-78
2021/07/13 04:19:34;;;;;;;25.17;22.53;;;;;;;18.10;94.62;98510.86;124834;1090;64361;-78
2021/07/13 04:22:02;;;;;;;28.20;23.27;;;;;;;18.18;94.83;98516.28;124855;1090;64377;-78
2021/07/13 04:24:29;;;;;;;25.80;21.50;;;;;;;18.29;94.91;98512.44;124771;1090;64261;-79
2021/07/13 04:26:57;;;;;;;29.83;23.47;;;;;;;18.36;94.45;98513.48;124753;1089;64396;-79
2021/07/13 04:29:24;;;;;;;26.73;22.33;;;;;;;18.43;94.27;98521.75;124874;1090;64342;-78
2021/07/13 04:31:51;;;;;;;26.63;21.37;;;;;;;18.51;94.34;98516.41;124804;1090;64283;-78
2021/07/13 04:34:19;;;;;;;23.97;21.40;;;;;;;18.55;93.85;98516.91;124826;1090;64268;-78
2021/07/13 04:36:46;;;;;;;26.90;21.17;;;;;;;18.54;93.77;98507.13;124840;1090;64287;-79
2021/07/13 04:39:13;;;;;;;26.33;21.60;;;;;;;18.60;93.60;98504.59;124783;1090;64273;-79
2021/07/13 04:41:40;;;;;;;24.20;21.13;;;;;;;18.68;93.43;98508.33;124812;1090;64268;-78
2021/07/13 04:44:07;;;;;;;24.27;21.37;;;;;;;18.76;93.08;98501.11;124886;1090;64284;-78
2021/07/13 04:46:35;;;;;;;28.87;21.07;;;;;;;18.86;92.76;98503.66;124803;1090;64287;-78
2021/07/13 04:49:02;;;;;;;24.13;21.40;;;;;;;18.94;92.38;98498.27;124851;1090;64275;-79
2021/07/13 04:51:29;;;;;;;27.93;22.50;;;;;;;19.00;92.45;98502.14;124788;1090;64405;-83
2021/07/13 04:53:57;;;;;;;26.80;22.70;;;;;;;19.07;92.03;98500.47;125044;1090;64537;-80
2021/07/13 04:56:24;;;;;;;29.80;23.03;;;;;;;19.10;91.92;98499.28;124839;1090;64304;-78
2021/07/13 04:58:51;;;;;;;27.90;22.27;;;;;;;19.12;91.85;98505.37;124871;1090;64268;-79
2021/07/13 05:01:18;;;;;;;28.40;22.47;;;;;;;19.15;91.51;98505.86;124907;1090;64306;-79
2021/07/13 05:03:45;;;;;;;27.60;22.45;;;;;;;19.21;91.63;98504.34;124807;1090;64415;-80
2021/07/13 05:06:14;;;;;;;26.23;21.97;;;;;;;19.33;91.41;98502.98;124850;1089;64284;-80
2021/07/13 05:08:42;;;;;;;26.57;22.67;;;;;;;19.46;91.23;98503.30;124910;1090;64283;-80
2021/07/13 05:11:10;;;;;;;29.97;25.40;;;;;;;19.56;90.42;98513.91;124863;1090;64268;-80
2021/07/13 05:13:37;;;;;;;27.00;21.55;;;;;;;19.59;90.29;98508.19;124869;1090;64280;-80
2021/07/13 05:16:05;;;;;;;27.67;23.33;;;;;;;19.66;90.36;98502.92;124840;1089;64358;-80
2021/07/13 05:18:34;;;;;;;26.27;21.53;;;;;;;19.77;90.28;98507.14;124853;1090;64287;-80
2021/07/13 05:21:04;;;;;;;24.93;21.87;;;;;;;19.93;89.60;98510.66;124879;1090;64210;-80
2021/07/13 05:23:33;;;;;;;21.93;19.57;;;;;;;20.12;88.51;98503.98;124880;1088;64309;-80
2021/07/13 05:26:00;;;;;;;22.50;20.10;;;;;;;20.09;87.83;98509.75;124875;1090;64191;-80
2021/07/13 05:28:27;;;;;;;26.03;20.93;;;;;;;20.08;88.24;98509.92;124906;1090;64913;-80
2021/07/13 05:30:55;;;;;;;23.03;20.57;;;;;;;20.16;88.34;98504.47;124885;1090;64412;-80
2021/07/13 05:33:22;;;;;;;25.57;22.20;;;;;;;20.28;88.30;98505.77;124851;1090;64268;-80
2021/07/13 05:35:49;;;;;;;29.40;24.50;;;;;;;20.35;87.88;98505.89;124896;1090;64348;-80
2021/07/13 05:38:16;;;;;;;31.77;24.70;;;;;;;20.38;87.45;98503.70;124899;1090;64293;-81
2021/07/13 05:40:45;;;;;;;33.93;25.57;;;;;;;20.40;87.63;98506.20;124857;1090;64379;-80
2021/07/13 05:43:16;;;;;;;31.90;25.40;;;;;;;20.48;87.39;98510.73;124932;1089;64267;-79
2021/07/13 05:45:45;;;;;;;31.97;25.07;;;;;;;20.53;87.36;98513.75;124878;1090;64287;-79
2021/07/13 05:48:12;;;;;;;26.87;22.37;;;;;;;20.50;86.32;98511.41;124869;1090;64239;-80
2021/07/13 05:50:39;;;;;;;25.17;21.70;;;;;;;20.48;86.64;98514.28;124870;1088;64217;-80
2021/07/13 05:53:06;;;;;;;25.53;22.03;;;;;;;20.49;86.05;98521.40;124852;1090;64323;-80
2021/07/13 05:55:33;;;;;;;23.20;20.57;;;;;;;20.47;86.32;98517.18;124872;1090;64883;-80
2021/07/13 05:58:02;;;;;;;20.93;18.77;;;;;;;20.65;85.39;98527.78;124933;1090;64300;-80
2021/07/13 06:00:29;;;;;;;21.85;18.90;;;;;;;20.68;85.41;98519.29;124934;1090;64240;-80
2021/07/13 06:02:56;;;;;;;21.93;19.40;;;;;;;20.74;85.46;98513.98;124953;1090;64242;-80
2021/07/13 06:05:23;;;;;;;22.47;20.17;;;;;;;20.89;85.83;98518.64;124900;1090;64318;-80
2021/07/13 06:07:50;;;;;;;21.30;19.20;;;;;;;21.02;84.09;98510.75;124887;1090;64280;-80
2021/07/13 06:10:18;;;;;;;21.30;19.30;;;;;;;20.99;83.99;98519.25;124879;1090;64191;-80
2021/07/13 06:12:47;;;;;;;20.90;18.80;;;;;;;21.05;83.23;98507.68;124936;1088;64300;-80
2021/07/13 06:15:15;;;;;;;21.97;19.87;;;;;;;21.09;83.16;98514.44;124864;1090;64149;-80
2021/07/13 06:17:42;;;;;;;21.90;19.80;;;;;;;21.10;83.24;98507.14;124868;1090;64335;-80
2021/07/13 06:20:11;;;;;;;21.13;18.90;;;;;;;21.16;83.40;98503.69;124872;1090;64420;-80
2021/07/13 06:22:40;;;;;;;19.73;17.67;;;;;;;21.31;83.72;98498.32;124880;1090;64268;-80
2021/07/13 06:25:09;;;;;;;21.10;19.10;;;;;;;21.52;83.14;98500.36;124932;1090;64357;-80
2021/07/13 06:27:36;;;;;;;20.60;18.60;;;;;;;21.93;82.18;98503.45;124845;1090;64295;-80
2021/07/13 06:30:06;;;;;;;19.70;17.80;;;;;;;22.12;81.75;98516.47;124818;1090;64259;-79
2021/07/13 06:32:33;;;;;;;19.05;17.35;;;;;;;22.34;81.04;98514.68;124961;1090;64363;-79
2021/07/13 06:35:01;;;;;;;20.65;18.90;;;;;;;22.45;80.67;98504.36;124887;1090;64265;-80
2021/07/13 06:37:28;;;;;;;19.70;17.90;;;;;;;22.75;79.76;98503.26;124904;1090;64351;-80
2021/07/13 06:39:55;;;;;;;19.10;17.50;;;;;;;23.54;77.74;98499.60;124856;1090;64207;-80
2021/07/13 06:42:22;;;;;;;19.90;18.10;;;;;;;23.70;77.67;98495.73;124854;1089;64322;-80
2021/07/13 06:44:49;;;;;;;19.37;17.43;;;;;;;24.08;76.79;98498.91;124858;1090;64309;-80
2021/07/13 06:47:17;;;;;;;19.43;17.73;;;;;;;24.63;76.15;98492.67;124895;1090;64277;-80
2021/07/13 06:49:44;;;;;;;19.97;18.20;;;;;;;24.56;75.25;98494.53;124990;1090;64219;-80
2021/07/13 06:52:11;;;;;;;22.77;20.50;;;;;;;24.27;74.21;98505.48;124926;1089;64296;-80
2021/07/13 06:54:38;;;;;;;23.50;21.30;;;;;;;24.01;74.04;98508.08;124888;1090;64297;-80
2021/07/13 06:57:05;;;;;;;22.73;20.80;;;;;;;23.66;73.98;98503.44;124805;1090;64181;-80
2021/07/13 06:59:34;;;;;;;23.23;21.27;;;;;;;23.47;74.84;98504.14;124833;1090;64303;-80
2021/07/13 07:02:02;;;;;;;22.63;20.63;;;;;;;23.42;74.68;98496.57;124797;1090;64287;-80
2021/07/13 07:04:29;;;;;;;21.17;19.47;;;;;;;23.32;74.74;98489.80;124877;1089;64268;-80
2021/07/13 07:06:57;;;;;;;22.00;19.90;;;;;;;23.39;75.16;98486.09;124808;1090;64261;-80
2021/07/13 07:09:24;;;;;;;20.23;18.43;;;;;;;23.57;75.38;98480.16;124815;1090;64401;-80
2021/07/13 07:11:51;;;;;;;19.87;18.07;;;;;;;23.85;75.12;98473.86;124799;1090;64357;-80
2021/07/13 07:14:18;;;;;;;18.73;17.03;;;;;;;24.29;74.81;98476.17;124820;1090;64271;-80
2021/07/13 07:16:46;;;;;;;18.50;16.70;;;;;;;24.57;75.01;98471.70;124798;1090;64263;-80
2021/07/13 07:19:13;;;;;;;18.50;16.90;;;;;;;25.07;73.91;98470.31;124801;1090;64736;-80
2021/07/13 07:21:40;;;;;;;18.20;16.70;;;;;;;25.41;72.35;98465.73;124808;1090;64265;-80
2021/07/13 07:24:08;;;;;;;19.73;17.93;;;;;;;25.51;71.46;98468.02;124827;1090;64287;-80
2021/07/13 07:26:35;;;;;;;18.10;16.50;;;;;;;25.61;71.22;98466.53;124813;1090;64359;-80
2021/07/13 07:29:02;;;;;;;17.53;16.03;;;;;;;25.40;70.44;98472.23;124803;1090;64213;-80
2021/07/13 07:31:30;;;;;;;18.85;17.25;;;;;;;25.28;70.81;98468.48;124826;1090;64387;-79
2021/07/13 07:33:57;;;;;;;17.83;16.23;;;;;;;25.21;70.55;98465.73;124826;1089;64315;-80
2021/07/13 07:36:26;;;;;;;19.33;17.73;;;;;;;25.25;70.95;98468.87;124802;1090;64248;-80
2021/07/13 07:38:55;;;;;;;18.17;16.77;;;;;;;25.18;70.44;98466.16;124929;1090;64210;-80
2021/07/13 07:41:22;;;;;;;20.07;18.40;;;;;;;25.29;70.28;98462.79;124847;1090;64265;-80
2021/07/13 07:43:49;;;;;;;20.37;18.60;;;;;;;25.26;70.04;98476.02;124841;1090;64268;-80
2021/07/13 07:46:17;;;;;;;20.60;18.90;;;;;;;25.21;69.98;98473.08;124913;1090;64329;-80
2021/07/13 07:48:44;;;;;;;18.47;16.87;;;;;;;25.19;70.24;98470.55;124886;1090;64310;-80
2021/07/13 07:51:11;;;;;;;18.53;16.67;;;;;;;25.15;69.84;98466.55;124837;1090;64364;-80
2021/07/13 07:53:38;;;;;;;17.93;16.43;;;;;;;25.07;70.99;98459.41;124911;1090;64334;-80
2021/07/13 07:56:06;;;;;;;16.43;14.87;;;;;;;25.23;71.09;98460.08;124822;1090;64287;-80
2021/07/13 07:58:34;;;;;;;16.00;14.63;;;;;;;25.44;70.91;98464.48;124910;1090;64245;-80
2021/07/13 08:01:01;;;;;;;16.40;15.10;;;;;;;25.67;70.20;98462.11;124872;1090;64659;-80
2021/07/13 08:03:28;;;;;;;17.57;15.87;;;;;;;25.71;69.79;98466.10;124920;1090;64200;-80
2021/07/13 08:05:55;;;;;;;16.50;15.07;;;;;;;25.79;69.34;98462.31;124911;1090;64207;-80
2021/07/13 08:08:23;;;;;;;15.50;14.23;;;;;;;25.81;69.95;98455.58;124888;1090;64284;-80
2021/07/13 08:10:50;;;;;;;16.05;14.85;;;;;;;25.77;69.44;98448.86;124869;1090;64308;-79
2021/07/13 08:13:17;;;;;;;16.77;15.20;;;;;;;25.73;69.71;98452.25;124890;1090;64383;-79
2021/07/13 08:15:45;;;;;;;16.87;15.33;;;;;;;25.78;69.58;98452.45;124899;1090;64233;-79
2021/07/13 08:18:12;;;;;;;16.27;14.87;;;;;;;25.72;69.20;98451.39;124826;1090;64302;-80
2021/07/13 08:20:40;;;;;;;15.70;14.40;;;;;;;25.77;69.67;98450.76;124766;1090;64284;-80
2021/07/13 08:23:07;;;;;;;16.90;15.40;;;;;;;25.75;68.99;98442.80;124791;1090;64303;-80
2021/07/13 08:25:35;;;;;;;16.57;15.13;;;;;;;25.65;69.48;98447.86;124805;1090;64284;-79
2021/07/13 08:28:02;;;;;;;16.07;14.77;;;;;;;25.60;69.10;98447.66;124782;1090;64265;-80
2021/07/13 08:30:31;;;;;;;15.60;14.30;;;;;;;25.70;69.79;98452.66;124821;1090;64241;-80
2021/07/13 08:32:58;;;;;;;15.37;14.13;;;;;;;25.75;69.21;98450.99;124799;1090;64297;-79
2021/07/13 08:35:25;;;;;;;16.30;15.00;;;;;;;25.90;69.08;98453.48;124775;1090;64284;-79
2021/07/13 08:37:53;;;;;;;14.57;13.17;;;;;;;26.08;68.30;98454.70;124783;1090;64268;-79
2021/07/13 08:40:20;;;;;;;13.73;12.43;;;;;;;26.14;68.84;98448.36;124805;1090;64241;-79
2021/07/13 08:42:48;;;;;;;15.70;14.30;;;;;;;26.30;68.42;98458.79;124768;1090;64268;-79
2021/07/13 08:45:18;;;;;;;15.03;13.83;;;;;;;26.48;68.74;98456.17;124786;1090;64287;-79
2021/07/13 08:47:49;;;;;;;14.87;13.60;;;;;;;26.57;67.16;98454.08;124905;1090;64369;-79
2021/07/13 08:50:19;;;;;;;15.40;14.20;;;;;;;26.55;67.44;98453.45;124818;1088;64270;-80
2021/07/13 08:52:48;;;;;;;14.85;13.35;;;;;;;26.73;67.66;98454.63;124864;1090;64193;-79
2021/07/13 08:55:15;;;;;;;15.17;13.83;;;;;;;26.83;66.39;98453.08;124793;1090;64276;-79
2021/07/13 08:57:44;;;;;;;14.23;13.00;;;;;;;26.77;66.80;98450.38;124862;1090;64206;-79
2021/07/13 09:00:16;;;;;;;15.43;14.30;;;;;;;26.87;67.24;98450.73;124901;1090;64261;-80
2021/07/13 09:03:03;;;;;;;16.00;14.70;;;;;;;26.99;66.47;98457.17;124887;1090;64319;-80
2021/07/13 09:05:42;;;;;;;14.80;13.60;;;;;;;27.05;67.19;98447.23;124852;1089;64262;-80
2021/07/13 09:08:28;;;;;;;12.95;11.58;;;;;;;27.10;65.09;98450.14;124879;1090;64349;-79
2021/07/13 09:11:00;;;;;;;12.50;11.40;;;;;;;26.99;64.61;98454.44;124812;1090;64294;-79
2021/07/13 09:13:34;;;;;;;13.77;12.50;;;;;;;27.01;64.58;98446.82;124831;1088;64370;-79
2021/07/13 09:16:04;;;;;;;13.73;12.73;;;;;;;27.08;65.40;98436.67;124786;1090;64188;-79
2021/07/13 09:18:35;;;;;;;14.77;13.57;;;;;;;27.24;64.47;98432.58;124925;1090;64149;-79
2021/07/13 09:21:15;;;;;;;14.93;13.37;;;;;;;27.27;65.77;98434.03;124893;1090;64268;-79
2021/07/13 09:24:10;;;;;;;13.17;12.13;;;;;;;27.45;64.91;98436.80;124790;1090;64654;-79
2021/07/13 09:26:43;;;;;;;13.00;11.87;;;;;;;27.52;64.86;98428.55;124792;1090;64354;-79
2021/07/13 09:29:27;;;;;;;13.30;12.20;;;;;;;27.64;65.04;98437.66;124820;1090;64280;-80
2021/07/13 09:32:14;;;;;;;13.33;12.23;;;;;;;27.65;63.56;98424.80;124859;1088;64184;-79
2021/07/13 09:35:03;;;;;;;13.20;12.30;;;;;;;27.76;65.00;98424.08;124820;1090;64310;-79
2021/07/13 09:37:33;;;;;;;14.47;13.17;;;;;;;27.91;64.59;98434.66;124835;1090;64211;-80
2021/07/13 09:40:15;;;;;;;12.63;11.73;;;;;;;27.99;64.41;98431.64;124809;1089;64425;-79
2021/07/13 09:42:48;;;;;;;11.43;10.63;;;;;;;28.12;63.62;98419.66;124835;1090;64264;-79
2021/07/13 09:45:33;;;;;;;12.43;11.57;;;;;;;28.26;63.70;98414.87;124853;1090;64239;-79
2021/07/13 09:48:11;;;;;;;11.70;10.70;;;;;;;28.28;62.26;98420.93;124789;1088;64290;-79
2021/07/13 09:50:44;;;;;;;11.73;10.87;;;;;;;28.21;61.04;98416.38;124831;1090;64306;-79
2021/07/13 09:53:15;;;;;;;11.50;10.60;;;;;;;28.10;60.25;98413.60;124773;1089;64335;-79
2021/07/13 09:55:47;;;;;;;12.47;11.47;;;;;;;28.03;61.01;98412.84;124811;1090;64328;-79
2021/07/13 09:58:27;;;;;;;11.13;10.33;;;;;;;28.14;60.96;98415.63;124855;1090;64191;-79
2021/07/13 10:00:59;;;;;;;10.87;10.17;;;;;;;28.21;60.21;98413.64;124806;1089;64249;-79
2021/07/13 10:03:27;;;;;;;11.13;10.33;;;;;;;28.24;60.05;98412.34;124808;1091;64689;-79
2021/07/13 10:05:59;;;;;;;12.10;11.20;;;;;;;28.36;59.73;98415.16;124811;1090;64325;-79
2021/07/13 10:08:27;;;;;;;11.35;10.45;;;;;;;28.44;60.41;98404.73;124832;1090;64284;-80
2021/07/13 10:10:55;;;;;;;11.73;10.93;;;;;;;28.59;60.23;98419.91;124817;1090;64216;-80
2021/07/13 10:13:22;;;;;;;11.35;10.30;;;;;;;28.64;58.81;98414.56;124813;1090;64376;-79
2021/07/13 10:15:50;;;;;;;11.20;10.40;;;;;;;28.55;57.77;98413.23;124827;1090;64370;-80
2021/07/13 10:18:18;;;;;;;12.27;11.37;;;;;;;28.48;58.31;98421.53;124843;1090;64294;-80
2021/07/13 10:20:48;;;;;;;11.23;10.13;;;;;;;28.52;58.86;98413.70;124799;1090;64357;-80
2021/07/13 10:23:16;;;;;;;11.37;10.27;;;;;;;28.62;58.02;98416.69;124820;1090;64306;-80
2021/07/13 10:25:44;;;;;;;10.43;9.73;;;;;;;28.61;57.50;98413.12;124809;1090;64354;-80
2021/07/13 10:28:18;;;;;;;12.30;11.00;;;;;;;28.69;58.11;98405.64;124890;1089;64191;-78
2021/07/13 10:30:46;;;;;;;11.00;10.17;;;;;;;28.79;58.33;98409.48;124803;1090;64394;-79
2021/07/13 10:33:45;;;;;;;10.83;10.00;;;;;;;28.97;59.42;98405.82;124805;1090;64262;-79
2021/07/13 10:36:27;;;;;;;12.53;11.30;;;;;;;29.22;58.56;98402.05;124775;1090;64387;-78
2021/07/13 10:39:34;;;;;;;11.53;10.43;;;;;;;29.35;58.33;98401.81;124845;1090;64254;-79
2021/07/13 10:42:02;;;;;;;11.23;10.40;;;;;;;29.43;58.05;98398.70;124752;1090;64268;-79
2021/07/13 10:44:48;;;;;;;11.00;10.20;;;;;;;29.55;58.21;98398.72;124892;1090;64427;-79
2021/07/13 10:47:30;;;;;;;11.77;10.67;;;;;;;29.76;58.38;98389.05;124931;1088;64290;-79
2021/07/13 10:50:16;;;;;;;12.90;11.70;;;;;;;29.69;56.90;98382.84;124857;1090;64188;-79
2021/07/13 10:52:54;;;;;;;11.37;10.47;;;;;;;29.75;57.55;98381.87;124791;1090;64280;-79
2021/07/13 10:55:30;;;;;;;11.80;10.90;;;;;;;29.77;56.41;98379.72;124795;1090;64338;-79
2021/07/13 10:58:10;;;;;;;11.47;10.67;;;;;;;29.81;56.76;98378.17;124790;1090;64291;-79
2021/07/13 11:00:58;;;;;;;10.83;10.13;;;;;;;29.81;56.50;98369.11;124810;1090;64182;-79
2021/07/13 11:03:31;;;;;;;11.00;10.07;;;;;;;29.84;54.69;98365.87;124783;1090;64262;-79
2021/07/13 11:06:06;;;;;;;10.80;9.70;;;;;;;29.63;53.93;98365.39;124790;1093;64184;-79
2021/07/13 11:08:49;;;;;;;9.93;9.10;;;;;;;29.50;54.12;98366.48;124770;1090;64312;-79
2021/07/13 11:11:17;;;;;;;11.90;10.90;;;;;;;29.47;54.75;98363.39;124911;1090;64287;-79
2021/07/13 11:13:47;;;;;;;12.27;11.17;;;;;;;29.51;56.12;98361.82;124867;1090;64207;-79
2021/07/13 11:16:16;;;;;;;10.80;9.95;;;;;;;29.58;57.01;98356.21;124940;1089;64242;-79
2021/07/13 11:18:43;;;;;;;10.63;9.80;;;;;;;29.71;56.40;98348.56;124876;1090;64268;-78
2021/07/13 11:21:30;;;;;;;11.20;10.13;;;;;;;29.78;54.85;98350.33;124802;1089;64284;-79
2021/07/13 11:24:06;;;;;;;14.37;10.27;;;;;;;29.74;55.75;98344.50;124767;1090;64437;-79